sensor_id;sensor_type;location;lat;lon;timestamp;P1;durP1;ratioP1;P2;durP2;ratioP2
41693;SDS011;27377;50.666;9.150;2023-12-20T00:01:48;4.33;;;3.07;;
41693;SDS011;27377;50.666;9.150;2023-12-20T00:04:14;3.83;;;2.70;;
41693;SDS011;27377;50.666;9.150;2023-12-20T00:06:40;3.93;;;2.80;;
41693;SDS011;27377;50.666;9.150;2023-12-20T00:09:05;3.50;;;2.60;;
41693;SDS011;27377;50.666;9.150;2023-12-20T00:11:31;3.77;;;2.70;;
41693;SDS011;27377;50.666;9.150;2023-12-20T00:13:56;3.90;;;2.63;;
41693;SDS011;27377;50.666;9.150;2023-12-20T00:16:22;3.70;;;2.70;;
41693;SDS011;27377;50.666;9.150;2023-12-20T00:18:48;4.68;;;2.85;;
41693;SDS011;27377;50.666;9.150;2023-12-20T00:21:13;3.83;;;2.63;;
41693;SDS011;27377;50.666;9.150;2023-12-20T00:23:39;4.43;;;3.03;;
41693;SDS011;27377;50.666;9.150;2023-12-20T00:26:05;3.80;;;2.72;;
41693;SDS011;27377;50.666;9.150;2023-12-20T00:28:30;4.07;;;3.00;;
41693;SDS011;27377;50.666;9.150;2023-12-20T00:30:56;3.83;;;2.60;;
41693;SDS011;27377;50.666;9.150;2023-12-20T00:33:21;3.83;;;2.80;;
41693;SDS011;27377;50.666;9.150;2023-12-20T00:35:47;3.63;;;2.63;;
41693;SDS011;27377;50.666;9.150;2023-12-20T00:38:13;4.35;;;2.90;;
41693;SDS011;27377;50.666;9.150;2023-12-20T00:40:39;4.75;;;3.00;;
41693;SDS011;27377;50.666;9.150;2023-12-20T00:43:05;4.20;;;3.20;;
41693;SDS011;27377;50.666;9.150;2023-12-20T00:45:30;4.63;;;3.10;;
41693;SDS011;27377;50.666;9.150;2023-12-20T00:47:56;4.00;;;3.00;;
41693;SDS011;27377;50.666;9.150;2023-12-20T00:50:22;4.82;;;2.83;;
41693;SDS011;27377;50.666;9.150;2023-12-20T00:52:48;4.30;;;3.03;;
41693;SDS011;27377;50.666;9.150;2023-12-20T00:55:13;4.28;;;2.90;;
41693;SDS011;27377;50.666;9.150;2023-12-20T00:57:39;5.43;;;3.03;;
41693;SDS011;27377;50.666;9.150;2023-12-20T01:00:05;4.40;;;3.17;;
41693;SDS011;27377;50.666;9.150;2023-12-20T01:02:31;4.07;;;2.92;;
41693;SDS011;27377;50.666;9.150;2023-12-20T01:04:57;4.43;;;3.00;;
41693;SDS011;27377;50.666;9.150;2023-12-20T01:07:22;4.70;;;3.07;;
41693;SDS011;27377;50.666;9.150;2023-12-20T01:09:48;4.28;;;3.20;;
41693;SDS011;27377;50.666;9.150;2023-12-20T01:12:15;4.30;;;2.88;;
41693;SDS011;27377;50.666;9.150;2023-12-20T01:14:40;4.10;;;2.90;;
41693;SDS011;27377;50.666;9.150;2023-12-20T01:17:06;4.20;;;2.90;;
41693;SDS011;27377;50.666;9.150;2023-12-20T01:19:32;4.43;;;2.90;;
41693;SDS011;27377;50.666;9.150;2023-12-20T01:21:57;4.23;;;3.03;;
41693;SDS011;27377;50.666;9.150;2023-12-20T01:24:23;4.13;;;2.83;;
41693;SDS011;27377;50.666;9.150;2023-12-20T01:26:48;4.40;;;3.00;;
41693;SDS011;27377;50.666;9.150;2023-12-20T01:29:14;4.60;;;3.00;;
41693;SDS011;27377;50.666;9.150;2023-12-20T01:31:40;4.18;;;2.95;;
41693;SDS011;27377;50.666;9.150;2023-12-20T01:34:06;4.40;;;2.83;;
41693;SDS011;27377;50.666;9.150;2023-12-20T01:36:32;4.33;;;2.90;;
41693;SDS011;27377;50.666;9.150;2023-12-20T01:38:57;4.03;;;3.00;;
41693;SDS011;27377;50.666;9.150;2023-12-20T01:41:23;4.23;;;2.90;;
41693;SDS011;27377;50.666;9.150;2023-12-20T01:43:48;4.33;;;3.20;;
41693;SDS011;27377;50.666;9.150;2023-12-20T01:46:14;5.05;;;3.53;;
41693;SDS011;27377;50.666;9.150;2023-12-20T01:48:40;5.25;;;3.58;;
41693;SDS011;27377;50.666;9.150;2023-12-20T01:51:07;4.97;;;3.55;;
41693;SDS011;27377;50.666;9.150;2023-12-20T01:53:33;5.00;;;3.67;;
41693;SDS011;27377;50.666;9.150;2023-12-20T01:55:59;5.60;;;3.90;;
41693;SDS011;27377;50.666;9.150;2023-12-20T01:58:25;5.70;;;4.13;;
41693;SDS011;27377;50.666;9.150;2023-12-20T02:00:52;5.97;;;4.40;;
41693;SDS011;27377;50.666;9.150;2023-12-20T02:03:17;5.38;;;4.28;;
41693;SDS011;27377;50.666;9.150;2023-12-20T02:05:44;6.38;;;4.38;;
41693;SDS011;27377;50.666;9.150;2023-12-20T02:08:10;5.80;;;4.50;;
41693;SDS011;27377;50.666;9.150;2023-12-20T02:10:36;7.03;;;5.00;;
41693;SDS011;27377;50.666;9.150;2023-12-20T02:13:02;7.43;;;5.13;;
41693;SDS011;27377;50.666;9.150;2023-12-20T02:15:29;7.35;;;4.50;;
41693;SDS011;27377;50.666;9.150;2023-12-20T02:17:55;6.37;;;4.80;;
41693;SDS011;27377;50.666;9.150;2023-12-20T02:20:20;6.65;;;5.20;;
41693;SDS011;27377;50.666;9.150;2023-12-20T02:22:46;7.07;;;5.30;;
41693;SDS011;27377;50.666;9.150;2023-12-20T02:25:12;6.75;;;5.22;;
41693;SDS011;27377;50.666;9.150;2023-12-20T02:27:37;7.20;;;5.18;;
41693;SDS011;27377;50.666;9.150;2023-12-20T02:30:04;7.68;;;5.30;;
41693;SDS011;27377;50.666;9.150;2023-12-20T02:32:31;7.97;;;5.60;;
41693;SDS011;27377;50.666;9.150;2023-12-20T02:34:57;8.47;;;6.03;;
41693;SDS011;27377;50.666;9.150;2023-12-20T02:37:23;7.03;;;5.60;;
41693;SDS011;27377;50.666;9.150;2023-12-20T02:39:48;7.63;;;5.70;;
41693;SDS011;27377;50.666;9.150;2023-12-20T02:42:14;7.60;;;5.57;;
41693;SDS011;27377;50.666;9.150;2023-12-20T02:44:39;7.40;;;5.47;;
41693;SDS011;27377;50.666;9.150;2023-12-20T02:47:05;6.95;;;5.13;;
41693;SDS011;27377;50.666;9.150;2023-12-20T02:49:31;7.07;;;5.22;;
41693;SDS011;27377;50.666;9.150;2023-12-20T02:51:56;8.35;;;5.78;;
41693;SDS011;27377;50.666;9.150;2023-12-20T02:54:22;8.15;;;6.32;;
41693;SDS011;27377;50.666;9.150;2023-12-20T02:56:47;8.88;;;6.28;;
41693;SDS011;27377;50.666;9.150;2023-12-20T02:59:13;10.07;;;6.45;;
41693;SDS011;27377;50.666;9.150;2023-12-20T03:01:43;10.00;;;7.20;;
41693;SDS011;27377;50.666;9.150;2023-12-20T03:04:09;9.30;;;6.85;;
41693;SDS011;27377;50.666;9.150;2023-12-20T03:06:35;9.13;;;6.70;;
41693;SDS011;27377;50.666;9.150;2023-12-20T03:09:00;10.20;;;6.90;;
41693;SDS011;27377;50.666;9.150;2023-12-20T03:11:26;9.57;;;6.73;;
41693;SDS011;27377;50.666;9.150;2023-12-20T03:13:53;9.38;;;6.60;;
41693;SDS011;27377;50.666;9.150;2023-12-20T03:16:18;8.87;;;6.53;;
41693;SDS011;27377;50.666;9.150;2023-12-20T03:18:44;8.97;;;6.80;;
41693;SDS011;27377;50.666;9.150;2023-12-20T03:21:09;9.70;;;6.43;;
41693;SDS011;27377;50.666;9.150;2023-12-20T03:23:35;8.47;;;6.47;;
41693;SDS011;27377;50.666;9.150;2023-12-20T03:26:01;7.95;;;6.07;;
41693;SDS011;27377;50.666;9.150;2023-12-20T03:28:27;8.93;;;6.53;;
41693;SDS011;27377;50.666;9.150;2023-12-20T03:31:07;10.50;;;7.25;;
41693;SDS011;27377;50.666;9.150;2023-12-20T03:33:34;9.18;;;6.55;;
41693;SDS011;27377;50.666;9.150;2023-12-20T03:36:00;8.77;;;6.35;;
41693;SDS011;27377;50.666;9.150;2023-12-20T03:38:26;8.00;;;6.10;;
41693;SDS011;27377;50.666;9.150;2023-12-20T03:40:58;7.85;;;5.68;;
41693;SDS011;27377;50.666;9.150;2023-12-20T03:43:24;6.53;;;4.80;;
41693;SDS011;27377;50.666;9.150;2023-12-20T03:45:49;6.83;;;4.93;;
41693;SDS011;27377;50.666;9.150;2023-12-20T03:48:16;7.30;;;4.60;;
41693;SDS011;27377;50.666;9.150;2023-12-20T03:50:42;5.50;;;3.90;;
41693;SDS011;27377;50.666;9.150;2023-12-20T03:53:19;6.05;;;4.47;;
41693;SDS011;27377;50.666;9.150;2023-12-20T03:55:46;6.47;;;4.20;;
41693;SDS011;27377;50.666;9.150;2023-12-20T03:58:12;5.55;;;4.32;;
41693;SDS011;27377;50.666;9.150;2023-12-20T04:00:49;6.53;;;4.47;;
41693;SDS011;27377;50.666;9.150;2023-12-20T04:03:18;5.97;;;4.40;;
41693;SDS011;27377;50.666;9.150;2023-12-20T04:05:58;6.00;;;4.15;;
41693;SDS011;27377;50.666;9.150;2023-12-20T04:08:27;5.80;;;4.00;;
41693;SDS011;27377;50.666;9.150;2023-12-20T04:11:11;5.90;;;4.00;;
41693;SDS011;27377;50.666;9.150;2023-12-20T04:16:32;5.63;;;4.10;;
41693;SDS011;27377;50.666;9.150;2023-12-20T04:19:10;7.95;;;4.00;;
41693;SDS011;27377;50.666;9.150;2023-12-20T04:21:37;5.68;;;4.22;;
41693;SDS011;27377;50.666;9.150;2023-12-20T04:24:08;8.10;;;4.28;;
41693;SDS011;27377;50.666;9.150;2023-12-20T04:26:59;6.25;;;4.20;;
41693;SDS011;27377;50.666;9.150;2023-12-20T04:29:28;8.20;;;4.45;;
41693;SDS011;27377;50.666;9.150;2023-12-20T04:31:57;6.70;;;4.50;;
41693;SDS011;27377;50.666;9.150;2023-12-20T04:34:32;7.22;;;4.72;;
41693;SDS011;27377;50.666;9.150;2023-12-20T04:37:02;6.60;;;4.40;;
41693;SDS011;27377;50.666;9.150;2023-12-20T04:39:32;7.22;;;4.78;;
41693;SDS011;27377;50.666;9.150;2023-12-20T04:41:59;8.05;;;4.60;;
41693;SDS011;27377;50.666;9.150;2023-12-20T04:44:28;7.20;;;4.60;;
41693;SDS011;27377;50.666;9.150;2023-12-20T04:46:55;6.47;;;4.70;;
41693;SDS011;27377;50.666;9.150;2023-12-20T04:49:21;7.00;;;4.77;;
41693;SDS011;27377;50.666;9.150;2023-12-20T04:51:48;8.00;;;4.80;;
41693;SDS011;27377;50.666;9.150;2023-12-20T04:54:16;7.37;;;4.70;;
41693;SDS011;27377;50.666;9.150;2023-12-20T04:56:44;7.35;;;4.38;;
41693;SDS011;27377;50.666;9.150;2023-12-20T04:59:13;6.88;;;4.88;;
41693;SDS011;27377;50.666;9.150;2023-12-20T05:01:40;7.25;;;4.68;;
41693;SDS011;27377;50.666;9.150;2023-12-20T05:04:06;6.97;;;4.15;;
41693;SDS011;27377;50.666;9.150;2023-12-20T05:06:32;6.63;;;4.10;;
41693;SDS011;27377;50.666;9.150;2023-12-20T05:08:58;7.13;;;4.40;;
41693;SDS011;27377;50.666;9.150;2023-12-20T05:11:41;6.47;;;4.35;;
41693;SDS011;27377;50.666;9.150;2023-12-20T05:14:15;6.03;;;3.90;;
41693;SDS011;27377;50.666;9.150;2023-12-20T05:16:42;7.05;;;3.72;;
41693;SDS011;27377;50.666;9.150;2023-12-20T05:19:08;6.47;;;3.22;;
41693;SDS011;27377;50.666;9.150;2023-12-20T05:21:34;6.10;;;3.17;;
41693;SDS011;27377;50.666;9.150;2023-12-20T05:24:03;5.10;;;3.00;;
41693;SDS011;27377;50.666;9.150;2023-12-20T05:26:29;7.77;;;3.20;;
41693;SDS011;27377;50.666;9.150;2023-12-20T05:29:05;8.00;;;3.97;;
41693;SDS011;27377;50.666;9.150;2023-12-20T05:31:31;5.93;;;3.80;;
41693;SDS011;27377;50.666;9.150;2023-12-20T05:33:57;9.57;;;4.30;;
41693;SDS011;27377;50.666;9.150;2023-12-20T05:36:23;9.27;;;4.30;;
41693;SDS011;27377;50.666;9.150;2023-12-20T05:38:49;7.80;;;4.40;;
41693;SDS011;27377;50.666;9.150;2023-12-20T05:41:15;7.30;;;4.70;;
41693;SDS011;27377;50.666;9.150;2023-12-20T05:43:48;7.80;;;4.97;;
41693;SDS011;27377;50.666;9.150;2023-12-20T05:46:20;8.87;;;4.93;;
41693;SDS011;27377;50.666;9.150;2023-12-20T05:48:46;6.55;;;4.43;;
41693;SDS011;27377;50.666;9.150;2023-12-20T05:51:13;7.35;;;4.20;;
41693;SDS011;27377;50.666;9.150;2023-12-20T05:53:50;8.98;;;4.47;;
41693;SDS011;27377;50.666;9.150;2023-12-20T05:56:18;7.63;;;4.18;;
41693;SDS011;27377;50.666;9.150;2023-12-20T05:58:44;9.18;;;4.32;;
41693;SDS011;27377;50.666;9.150;2023-12-20T06:01:15;9.10;;;4.20;;
41693;SDS011;27377;50.666;9.150;2023-12-20T06:03:44;7.45;;;3.80;;
41693;SDS011;27377;50.666;9.150;2023-12-20T06:06:17;9.70;;;4.03;;
41693;SDS011;27377;50.666;9.150;2023-12-20T06:08:51;7.68;;;3.80;;
41693;SDS011;27377;50.666;9.150;2023-12-20T06:38:53;11.80;;;4.82;;
41693;SDS011;27377;50.666;9.150;2023-12-20T06:41:23;11.05;;;4.13;;
41693;SDS011;27377;50.666;9.150;2023-12-20T06:43:50;11.13;;;4.35;;
41693;SDS011;27377;50.666;9.150;2023-12-20T06:46:24;13.20;;;5.17;;
41693;SDS011;27377;50.666;9.150;2023-12-20T06:48:50;11.18;;;4.28;;
41693;SDS011;27377;50.666;9.150;2023-12-20T06:51:21;11.17;;;4.50;;
41693;SDS011;27377;50.666;9.150;2023-12-20T06:53:53;8.60;;;4.30;;
41693;SDS011;27377;50.666;9.150;2023-12-20T06:56:19;9.75;;;4.50;;
41693;SDS011;27377;50.666;9.150;2023-12-20T06:58:51;6.60;;;3.45;;
41693;SDS011;27377;50.666;9.150;2023-12-20T07:01:26;6.47;;;3.75;;
41693;SDS011;27377;50.666;9.150;2023-12-20T07:03:52;9.83;;;4.43;;
41693;SDS011;27377;50.666;9.150;2023-12-20T07:06:18;12.50;;;4.40;;
41693;SDS011;27377;50.666;9.150;2023-12-20T07:08:46;12.43;;;4.55;;
41693;SDS011;27377;50.666;9.150;2023-12-20T07:11:12;10.13;;;4.57;;
41693;SDS011;27377;50.666;9.150;2023-12-20T07:13:47;8.35;;;4.05;;
41693;SDS011;27377;50.666;9.150;2023-12-20T07:16:32;9.18;;;4.38;;
41693;SDS011;27377;50.666;9.150;2023-12-20T07:21:34;9.40;;;3.75;;
41693;SDS011;27377;50.666;9.150;2023-12-20T07:24:18;9.65;;;4.43;;
41693;SDS011;27377;50.666;9.150;2023-12-20T07:26:49;10.65;;;4.30;;
41693;SDS011;27377;50.666;9.150;2023-12-20T07:29:24;8.52;;;3.63;;
41693;SDS011;27377;50.666;9.150;2023-12-20T07:31:50;9.25;;;3.70;;
41693;SDS011;27377;50.666;9.150;2023-12-20T07:34:34;10.52;;;4.10;;
41693;SDS011;27377;50.666;9.150;2023-12-20T07:37:00;10.13;;;3.73;;
41693;SDS011;27377;50.666;9.150;2023-12-20T07:39:26;12.60;;;3.30;;
41693;SDS011;27377;50.666;9.150;2023-12-20T07:41:59;8.50;;;3.40;;
41693;SDS011;27377;50.666;9.150;2023-12-20T07:44:29;9.40;;;3.42;;
41693;SDS011;27377;50.666;9.150;2023-12-20T07:47:11;8.63;;;3.42;;
41693;SDS011;27377;50.666;9.150;2023-12-20T07:49:42;10.15;;;3.25;;
41693;SDS011;27377;50.666;9.150;2023-12-20T07:52:08;9.87;;;3.37;;
41693;SDS011;27377;50.666;9.150;2023-12-20T07:57:10;10.25;;;3.40;;
41693;SDS011;27377;50.666;9.150;2023-12-20T08:03:39;9.77;;;3.37;;
41693;SDS011;27377;50.666;9.150;2023-12-20T08:06:05;10.65;;;3.08;;
41693;SDS011;27377;50.666;9.150;2023-12-20T08:08:34;9.90;;;3.03;;
41693;SDS011;27377;50.666;9.150;2023-12-20T08:11:05;12.63;;;3.47;;
41693;SDS011;27377;50.666;9.150;2023-12-20T08:13:37;10.50;;;3.35;;
41693;SDS011;27377;50.666;9.150;2023-12-20T08:16:04;9.47;;;3.13;;
41693;SDS011;27377;50.666;9.150;2023-12-20T08:18:56;12.43;;;3.60;;
41693;SDS011;27377;50.666;9.150;2023-12-20T08:21:27;9.85;;;3.00;;
41693;SDS011;27377;50.666;9.150;2023-12-20T08:23:56;11.82;;;3.28;;
41693;SDS011;27377;50.666;9.150;2023-12-20T08:26:29;13.43;;;3.40;;
41693;SDS011;27377;50.666;9.150;2023-12-20T08:28:56;12.48;;;3.47;;
41693;SDS011;27377;50.666;9.150;2023-12-20T08:31:25;11.32;;;3.45;;
41693;SDS011;27377;50.666;9.150;2023-12-20T08:33:57;12.10;;;3.38;;
41693;SDS011;27377;50.666;9.150;2023-12-20T08:36:29;11.30;;;2.90;;
41693;SDS011;27377;50.666;9.150;2023-12-20T08:39:02;10.25;;;3.20;;
41693;SDS011;27377;50.666;9.150;2023-12-20T08:41:44;9.67;;;3.10;;
41693;SDS011;27377;50.666;9.150;2023-12-20T08:44:12;13.45;;;3.47;;
41693;SDS011;27377;50.666;9.150;2023-12-20T08:46:55;14.75;;;3.75;;
41693;SDS011;27377;50.666;9.150;2023-12-20T08:49:36;12.65;;;3.10;;
41693;SDS011;27377;50.666;9.150;2023-12-20T08:52:12;9.10;;;2.90;;
41693;SDS011;27377;50.666;9.150;2023-12-20T09:22:48;11.87;;;3.17;;
41693;SDS011;27377;50.666;9.150;2023-12-20T09:25:17;12.20;;;3.10;;
41693;SDS011;27377;50.666;9.150;2023-12-20T09:28:00;10.23;;;2.78;;
41693;SDS011;27377;50.666;9.150;2023-12-20T09:33:50;12.23;;;2.80;;
41693;SDS011;27377;50.666;9.150;2023-12-20T09:36:16;11.82;;;3.20;;
41693;SDS011;27377;50.666;9.150;2023-12-20T09:38:42;10.13;;;3.00;;
41693;SDS011;27377;50.666;9.150;2023-12-20T09:41:08;11.05;;;2.80;;
41693;SDS011;27377;50.666;9.150;2023-12-20T09:43:35;11.70;;;3.03;;
41693;SDS011;27377;50.666;9.150;2023-12-20T09:48:39;9.07;;;2.67;;
41693;SDS011;27377;50.666;9.150;2023-12-20T09:51:08;11.10;;;3.13;;
41693;SDS011;27377;50.666;9.150;2023-12-20T09:56:09;9.43;;;2.90;;
41693;SDS011;27377;50.666;9.150;2023-12-20T09:58:36;8.73;;;2.83;;
41693;SDS011;27377;50.666;9.150;2023-12-20T10:01:36;9.65;;;2.88;;
41693;SDS011;27377;50.666;9.150;2023-12-20T10:05:26;10.00;;;3.00;;
41693;SDS011;27377;50.666;9.150;2023-12-20T10:08:24;12.07;;;2.92;;
41693;SDS011;27377;50.666;9.150;2023-12-20T10:10:50;9.73;;;2.83;;
41693;SDS011;27377;50.666;9.150;2023-12-20T10:13:16;9.47;;;2.90;;
41693;SDS011;27377;50.666;9.150;2023-12-20T10:15:42;11.75;;;3.10;;
41693;SDS011;27377;50.666;9.150;2023-12-20T10:18:07;10.93;;;2.90;;
41693;SDS011;27377;50.666;9.150;2023-12-20T10:20:33;11.80;;;2.93;;
41693;SDS011;27377;50.666;9.150;2023-12-20T10:23:00;10.95;;;3.00;;
41693;SDS011;27377;50.666;9.150;2023-12-20T10:25:26;12.60;;;3.03;;
41693;SDS011;27377;50.666;9.150;2023-12-20T10:28:11;12.35;;;2.78;;
41693;SDS011;27377;50.666;9.150;2023-12-20T10:30:54;15.57;;;3.17;;
41693;SDS011;27377;50.666;9.150;2023-12-20T10:33:26;11.82;;;3.03;;
41693;SDS011;27377;50.666;9.150;2023-12-20T10:36:15;13.18;;;3.13;;
41693;SDS011;27377;50.666;9.150;2023-12-20T10:41:30;10.07;;;2.83;;
41693;SDS011;27377;50.666;9.150;2023-12-20T10:44:34;12.45;;;2.90;;
41693;SDS011;27377;50.666;9.150;2023-12-20T10:47:00;15.32;;;3.15;;
41693;SDS011;27377;50.666;9.150;2023-12-20T11:52:03;10.13;;;2.73;;
41693;SDS011;27377;50.666;9.150;2023-12-20T11:54:30;12.23;;;2.58;;
41693;SDS011;27377;50.666;9.150;2023-12-20T11:56:57;9.80;;;2.60;;
41693;SDS011;27377;50.666;9.150;2023-12-20T11:59:23;13.20;;;3.00;;
41693;SDS011;27377;50.666;9.150;2023-12-20T12:01:51;13.57;;;2.70;;
41693;SDS011;27377;50.666;9.150;2023-12-20T12:04:17;14.95;;;2.78;;
41693;SDS011;27377;50.666;9.150;2023-12-20T12:06:43;10.48;;;2.42;;
41693;SDS011;27377;50.666;9.150;2023-12-20T12:09:13;11.82;;;2.83;;
41693;SDS011;27377;50.666;9.150;2023-12-20T12:11:40;13.40;;;2.95;;
41693;SDS011;27377;50.666;9.150;2023-12-20T12:14:10;12.20;;;2.95;;
41693;SDS011;27377;50.666;9.150;2023-12-20T12:16:35;10.70;;;2.50;;
41693;SDS011;27377;50.666;9.150;2023-12-20T12:19:01;12.75;;;3.00;;
41693;SDS011;27377;50.666;9.150;2023-12-20T12:21:27;12.45;;;3.05;;
41693;SDS011;27377;50.666;9.150;2023-12-20T12:24:08;9.85;;;2.70;;
41693;SDS011;27377;50.666;9.150;2023-12-20T12:26:39;12.30;;;2.93;;
41693;SDS011;27377;50.666;9.150;2023-12-20T12:29:07;10.65;;;2.60;;
41693;SDS011;27377;50.666;9.150;2023-12-20T12:31:35;12.45;;;2.70;;
41693;SDS011;27377;50.666;9.150;2023-12-20T12:34:01;10.18;;;2.78;;
41693;SDS011;27377;50.666;9.150;2023-12-20T12:36:27;12.90;;;2.63;;
41693;SDS011;27377;50.666;9.150;2023-12-20T12:38:56;9.80;;;2.60;;
41693;SDS011;27377;50.666;9.150;2023-12-20T12:41:23;11.68;;;2.95;;
41693;SDS011;27377;50.666;9.150;2023-12-20T12:43:49;14.15;;;3.00;;
41693;SDS011;27377;50.666;9.150;2023-12-20T12:46:15;13.80;;;2.70;;
41693;SDS011;27377;50.666;9.150;2023-12-20T12:48:40;12.60;;;2.80;;
41693;SDS011;27377;50.666;9.150;2023-12-20T12:51:06;13.32;;;2.92;;
41693;SDS011;27377;50.666;9.150;2023-12-20T12:53:37;10.68;;;2.50;;
41693;SDS011;27377;50.666;9.150;2023-12-20T12:56:03;13.03;;;3.00;;
41693;SDS011;27377;50.666;9.150;2023-12-20T12:58:29;11.27;;;2.60;;
41693;SDS011;27377;50.666;9.150;2023-12-20T13:00:55;11.10;;;2.77;;
41693;SDS011;27377;50.666;9.150;2023-12-20T13:03:21;13.38;;;3.10;;
41693;SDS011;27377;50.666;9.150;2023-12-20T13:05:47;11.93;;;3.27;;
41693;SDS011;27377;50.666;9.150;2023-12-20T13:08:13;11.93;;;3.30;;
41693;SDS011;27377;50.666;9.150;2023-12-20T13:10:40;13.45;;;3.05;;
41693;SDS011;27377;50.666;9.150;2023-12-20T13:13:06;12.88;;;3.13;;
41693;SDS011;27377;50.666;9.150;2023-12-20T13:15:31;11.02;;;2.92;;
41693;SDS011;27377;50.666;9.150;2023-12-20T13:17:57;13.13;;;2.80;;
41693;SDS011;27377;50.666;9.150;2023-12-20T13:20:23;9.37;;;2.40;;
41693;SDS011;27377;50.666;9.150;2023-12-20T13:22:49;12.13;;;3.00;;
41693;SDS011;27377;50.666;9.150;2023-12-20T13:25:14;11.00;;;2.90;;
41693;SDS011;27377;50.666;9.150;2023-12-20T13:27:41;10.85;;;2.58;;
41693;SDS011;27377;50.666;9.150;2023-12-20T13:30:07;12.05;;;2.72;;
41693;SDS011;27377;50.666;9.150;2023-12-20T13:32:32;12.67;;;2.70;;
41693;SDS011;27377;50.666;9.150;2023-12-20T13:34:58;11.13;;;2.63;;
41693;SDS011;27377;50.666;9.150;2023-12-20T13:37:25;11.82;;;2.90;;
41693;SDS011;27377;50.666;9.150;2023-12-20T13:39:50;12.90;;;2.95;;
41693;SDS011;27377;50.666;9.150;2023-12-20T13:42:16;10.77;;;2.58;;
41693;SDS011;27377;50.666;9.150;2023-12-20T13:44:42;11.18;;;2.60;;
41693;SDS011;27377;50.666;9.150;2023-12-20T13:47:07;9.70;;;2.90;;
41693;SDS011;27377;50.666;9.150;2023-12-20T13:49:33;11.88;;;2.85;;
41693;SDS011;27377;50.666;9.150;2023-12-20T13:52:02;10.30;;;2.92;;
41693;SDS011;27377;50.666;9.150;2023-12-20T13:54:29;8.45;;;2.45;;
41693;SDS011;27377;50.666;9.150;2023-12-20T13:56:55;8.48;;;2.70;;
41693;SDS011;27377;50.666;9.150;2023-12-20T13:59:22;10.07;;;2.80;;
41693;SDS011;27377;50.666;9.150;2023-12-20T14:01:51;10.40;;;2.80;;
41693;SDS011;27377;50.666;9.150;2023-12-20T14:04:16;8.27;;;2.80;;
41693;SDS011;27377;50.666;9.150;2023-12-20T14:06:42;13.52;;;2.85;;
41693;SDS011;27377;50.666;9.150;2023-12-20T14:09:13;13.23;;;2.70;;
41693;SDS011;27377;50.666;9.150;2023-12-20T14:11:42;11.00;;;2.90;;
41693;SDS011;27377;50.666;9.150;2023-12-20T14:14:08;10.32;;;2.78;;
41693;SDS011;27377;50.666;9.150;2023-12-20T14:16:34;13.57;;;2.70;;
41693;SDS011;27377;50.666;9.150;2023-12-20T14:19:00;10.83;;;3.10;;
41693;SDS011;27377;50.666;9.150;2023-12-20T14:21:28;12.07;;;2.70;;
41693;SDS011;27377;50.666;9.150;2023-12-20T14:23:54;13.07;;;3.17;;
41693;SDS011;27377;50.666;9.150;2023-12-20T14:26:30;10.95;;;2.80;;
41693;SDS011;27377;50.666;9.150;2023-12-20T14:28:57;9.43;;;2.70;;
41693;SDS011;27377;50.666;9.150;2023-12-20T14:31:26;12.32;;;2.90;;
41693;SDS011;27377;50.666;9.150;2023-12-20T14:33:52;12.57;;;3.10;;
41693;SDS011;27377;50.666;9.150;2023-12-20T14:36:18;9.48;;;2.97;;
41693;SDS011;27377;50.666;9.150;2023-12-20T14:38:45;9.65;;;2.70;;
41693;SDS011;27377;50.666;9.150;2023-12-20T14:41:12;13.63;;;2.95;;
41693;SDS011;27377;50.666;9.150;2023-12-20T14:43:38;9.73;;;2.80;;
41693;SDS011;27377;50.666;9.150;2023-12-20T14:46:04;12.37;;;2.80;;
41693;SDS011;27377;50.666;9.150;2023-12-20T14:48:32;9.90;;;3.00;;
41693;SDS011;27377;50.666;9.150;2023-12-20T14:50:58;10.85;;;3.20;;
41693;SDS011;27377;50.666;9.150;2023-12-20T14:53:24;9.63;;;3.22;;
41693;SDS011;27377;50.666;9.150;2023-12-20T14:55:50;13.23;;;3.08;;
41693;SDS011;27377;50.666;9.150;2023-12-20T14:58:18;10.07;;;2.88;;
41693;SDS011;27377;50.666;9.150;2023-12-20T15:00:44;10.20;;;3.17;;
41693;SDS011;27377;50.666;9.150;2023-12-20T15:03:10;11.37;;;3.50;;
41693;SDS011;27377;50.666;9.150;2023-12-20T15:05:36;12.57;;;3.15;;
41693;SDS011;27377;50.666;9.150;2023-12-20T15:08:03;12.40;;;3.28;;
41693;SDS011;27377;50.666;9.150;2023-12-20T15:10:31;9.85;;;2.97;;
41693;SDS011;27377;50.666;9.150;2023-12-20T15:13:01;10.35;;;3.33;;
41693;SDS011;27377;50.666;9.150;2023-12-20T15:15:30;10.63;;;2.90;;
41693;SDS011;27377;50.666;9.150;2023-12-20T15:17:57;9.68;;;2.92;;
41693;SDS011;27377;50.666;9.150;2023-12-20T15:20:28;10.73;;;3.00;;
41693;SDS011;27377;50.666;9.150;2023-12-20T15:22:54;11.30;;;3.13;;
41693;SDS011;27377;50.666;9.150;2023-12-20T15:25:20;10.52;;;3.03;;
41693;SDS011;27377;50.666;9.150;2023-12-20T15:27:50;12.45;;;3.35;;
41693;SDS011;27377;50.666;9.150;2023-12-20T15:30:20;8.30;;;2.92;;
41693;SDS011;27377;50.666;9.150;2023-12-20T15:32:45;9.77;;;3.10;;
41693;SDS011;27377;50.666;9.150;2023-12-20T15:35:11;9.68;;;3.15;;
41693;SDS011;27377;50.666;9.150;2023-12-20T15:37:37;8.52;;;2.80;;
41693;SDS011;27377;50.666;9.150;2023-12-20T15:40:09;10.35;;;2.88;;
41693;SDS011;27377;50.666;9.150;2023-12-20T15:42:39;10.18;;;2.95;;
41693;SDS011;27377;50.666;9.150;2023-12-20T15:45:05;10.88;;;2.83;;
41693;SDS011;27377;50.666;9.150;2023-12-20T15:47:33;8.57;;;3.05;;
41693;SDS011;27377;50.666;9.150;2023-12-20T15:50:01;8.83;;;3.03;;
41693;SDS011;27377;50.666;9.150;2023-12-20T15:52:30;8.63;;;2.85;;
41693;SDS011;27377;50.666;9.150;2023-12-20T15:55:01;9.00;;;2.85;;
41693;SDS011;27377;50.666;9.150;2023-12-20T15:57:28;11.30;;;2.80;;
41693;SDS011;27377;50.666;9.150;2023-12-20T15:59:56;9.15;;;2.70;;
41693;SDS011;27377;50.666;9.150;2023-12-20T16:02:23;11.00;;;2.95;;
41693;SDS011;27377;50.666;9.150;2023-12-20T16:04:50;7.25;;;2.30;;
41693;SDS011;27377;50.666;9.150;2023-12-20T16:07:15;9.55;;;2.83;;
41693;SDS011;27377;50.666;9.150;2023-12-20T16:09:41;8.25;;;2.33;;
41693;SDS011;27377;50.666;9.150;2023-12-20T16:12:10;9.13;;;2.83;;
41693;SDS011;27377;50.666;9.150;2023-12-20T16:14:36;8.00;;;2.70;;
41693;SDS011;27377;50.666;9.150;2023-12-20T16:17:03;8.77;;;2.88;;
41693;SDS011;27377;50.666;9.150;2023-12-20T16:19:30;8.20;;;2.65;;
41693;SDS011;27377;50.666;9.150;2023-12-20T16:21:59;7.32;;;2.40;;
41693;SDS011;27377;50.666;9.150;2023-12-20T16:24:24;7.60;;;2.37;;
41693;SDS011;27377;50.666;9.150;2023-12-20T16:26:50;8.93;;;2.37;;
41693;SDS011;27377;50.666;9.150;2023-12-20T16:29:18;6.60;;;2.40;;
41693;SDS011;27377;50.666;9.150;2023-12-20T16:31:44;7.85;;;2.20;;
41693;SDS011;27377;50.666;9.150;2023-12-20T16:34:11;8.27;;;2.60;;
41693;SDS011;27377;50.666;9.150;2023-12-20T16:36:52;5.60;;;1.80;;
41693;SDS011;27377;50.666;9.150;2023-12-20T16:39:20;10.93;;;2.25;;
41693;SDS011;27377;50.666;9.150;2023-12-20T16:41:48;8.70;;;2.50;;
41693;SDS011;27377;50.666;9.150;2023-12-20T16:44:17;8.23;;;2.40;;
41693;SDS011;27377;50.666;9.150;2023-12-20T16:46:45;8.60;;;2.20;;
41693;SDS011;27377;50.666;9.150;2023-12-20T16:49:22;7.22;;;2.03;;
41693;SDS011;27377;50.666;9.150;2023-12-20T16:51:48;7.03;;;2.10;;
41693;SDS011;27377;50.666;9.150;2023-12-20T16:54:16;6.63;;;1.92;;
41693;SDS011;27377;50.666;9.150;2023-12-20T16:56:41;7.55;;;2.05;;
41693;SDS011;27377;50.666;9.150;2023-12-20T16:59:09;8.27;;;2.10;;
41693;SDS011;27377;50.666;9.150;2023-12-20T17:01:39;6.63;;;1.80;;
41693;SDS011;27377;50.666;9.150;2023-12-20T17:04:10;7.97;;;2.03;;
41693;SDS011;27377;50.666;9.150;2023-12-20T17:06:39;8.50;;;2.40;;
41693;SDS011;27377;50.666;9.150;2023-12-20T17:09:05;6.97;;;1.80;;
41693;SDS011;27377;50.666;9.150;2023-12-20T17:11:35;7.97;;;2.10;;
41693;SDS011;27377;50.666;9.150;2023-12-20T17:14:05;6.47;;;1.90;;